createdAt,value
2023-03-15T00:03:47.878Z,6.10
2023-03-15T00:06:19.080Z,5.90
2023-03-15T00:08:50.078Z,5.80
2023-03-15T00:11:21.672Z,5.70
2023-03-15T00:13:52.744Z,5.90
2023-03-15T00:16:25.105Z,5.90
2023-03-15T00:18:56.186Z,5.80
2023-03-15T00:21:28.763Z,5.80
2023-03-15T00:23:59.784Z,5.80
2023-03-15T00:26:30.647Z,5.80
2023-03-15T00:29:01.607Z,5.80
2023-03-15T00:31:32.727Z,5.60
2023-03-15T00:34:03.860Z,5.50
2023-03-15T00:36:35.225Z,5.60
2023-03-15T00:39:06.250Z,5.60
2023-03-15T00:41:37.183Z,5.70
2023-03-15T00:44:08.507Z,5.90
2023-03-15T00:46:39.401Z,5.90
2023-03-15T00:49:10.518Z,5.90
2023-03-15T00:51:41.586Z,5.90
2023-03-15T00:54:14.029Z,6.00
2023-03-15T00:56:45.396Z,6.10
2023-03-15T00:59:16.523Z,6.20
2023-03-15T01:01:47.400Z,6.40
2023-03-15T01:04:18.507Z,6.30
2023-03-15T01:06:49.547Z,6.20
2023-03-15T01:09:20.551Z,6.10
2023-03-15T01:11:54.536Z,6.10
2023-03-15T01:14:25.386Z,6.10
2023-03-15T01:16:56.237Z,6.10
2023-03-15T01:19:27.137Z,6.20
2023-03-15T01:21:58.053Z,6.20
2023-03-15T01:24:29.223Z,6.10
2023-03-15T01:27:00.128Z,6.20
2023-03-15T01:29:31.073Z,6.30
2023-03-15T01:32:02.101Z,6.40
2023-03-15T01:34:33.303Z,6.40
2023-03-15T01:37:04.342Z,6.40
2023-03-15T01:39:35.278Z,6.50
2023-03-15T01:42:06.935Z,6.50
2023-03-15T01:44:55.688Z,6.60
2023-03-15T01:47:27.815Z,6.60
2023-03-15T01:50:03.047Z,6.60
2023-03-15T01:52:37.547Z,6.50
2023-03-15T01:55:12.297Z,6.40
2023-03-15T01:57:46.425Z,6.40
2023-03-15T02:00:20.420Z,6.50
2023-03-15T02:02:54.236Z,6.50
2023-03-15T02:05:28.081Z,6.40
2023-03-15T02:07:59.333Z,6.40
2023-03-15T02:10:32.710Z,6.50
2023-03-15T02:13:04.040Z,6.60
2023-03-15T02:15:35.435Z,6.60
2023-03-15T02:18:06.372Z,6.60
2023-03-15T02:20:40.450Z,6.50
2023-03-15T02:23:14.137Z,6.40
2023-03-15T02:25:47.885Z,6.40
2023-03-15T02:28:20.107Z,6.50
2023-03-15T02:30:51.756Z,6.40
2023-03-15T02:33:26.109Z,6.30
2023-03-15T02:35:57.736Z,6.20
2023-03-15T02:38:28.731Z,6.20
2023-03-15T02:41:00.240Z,6.20
2023-03-15T02:43:34.243Z,6.20
2023-03-15T02:46:06.959Z,6.10
2023-03-15T02:48:39.615Z,6.00
2023-03-15T02:51:12.018Z,5.90
2023-03-15T02:53:42.919Z,5.90
2023-03-15T02:56:14.636Z,6.00
2023-03-15T02:58:46.218Z,5.90
2023-03-15T03:01:19.903Z,6.00
2023-03-15T03:03:51.081Z,5.90
2023-03-15T03:06:22.264Z,6.00
2023-03-15T03:08:53.178Z,5.90
2023-03-15T03:11:24.087Z,5.80
2023-03-15T03:13:55.026Z,5.80
2023-03-15T03:16:26.241Z,5.60
2023-03-15T03:18:57.159Z,5.40
2023-03-15T03:21:28.146Z,5.10
2023-03-15T03:24:17.349Z,4.90
2023-03-15T03:26:48.482Z,5.00
2023-03-15T03:29:19.392Z,4.80
2023-03-15T03:31:50.731Z,4.80
2023-03-15T03:34:21.830Z,4.80
2023-03-15T03:36:53.038Z,4.80
2023-03-15T03:39:24.163Z,4.90
2023-03-15T03:41:55.100Z,4.90
2023-03-15T03:44:26.060Z,4.90
2023-03-15T03:46:56.985Z,5.00
2023-03-15T03:49:28.033Z,4.80
2023-03-15T03:52:00.446Z,4.60
2023-03-15T03:54:32.598Z,4.30
2023-03-15T03:57:03.657Z,4.00
2023-03-15T03:59:34.644Z,3.80
2023-03-15T04:02:05.809Z,3.70
2023-03-15T04:04:37.362Z,3.90
2023-03-15T04:07:08.689Z,3.80
2023-03-15T04:09:42.199Z,3.80
2023-03-15T04:12:14.394Z,3.70
2023-03-15T04:14:45.802Z,3.60
2023-03-15T04:17:16.702Z,3.60
2023-03-15T04:19:47.747Z,3.60
2023-03-15T04:22:18.795Z,3.50
2023-03-15T04:24:50.866Z,3.50
2023-03-15T04:27:21.768Z,3.50
2023-03-15T04:29:53.089Z,3.60
2023-03-15T04:32:24.281Z,3.40
2023-03-15T04:34:56.086Z,3.40
2023-03-15T04:37:27.090Z,3.30
2023-03-15T04:39:58.169Z,3.30
2023-03-15T04:42:29.006Z,3.30
2023-03-15T04:44:59.998Z,3.30
2023-03-15T04:47:31.343Z,3.30
2023-03-15T04:50:04.475Z,3.40
2023-03-15T04:52:35.391Z,3.30
2023-03-15T04:55:07.387Z,3.30
2023-03-15T04:57:38.320Z,3.30
2023-03-15T05:00:13.254Z,3.30
2023-03-15T05:02:44.252Z,3.30
2023-03-15T05:05:15.291Z,3.40
2023-03-15T05:07:46.305Z,3.40
2023-03-15T05:10:18.133Z,3.30
2023-03-15T05:12:49.640Z,3.20
2023-03-15T05:15:21.156Z,3.20
2023-03-15T05:17:53.838Z,3.20
2023-03-15T05:20:25.474Z,3.10
2023-03-15T05:22:56.473Z,3.10
2023-03-15T05:25:27.369Z,3.00
2023-03-15T05:27:58.876Z,3.40
2023-03-15T05:30:29.902Z,3.30
2023-03-15T05:33:02.326Z,3.30
2023-03-15T05:35:33.442Z,3.00
2023-03-15T05:38:04.404Z,3.50
2023-03-15T05:40:35.391Z,3.60
2023-03-15T05:43:06.812Z,3.50
2023-03-15T05:45:37.911Z,3.60
2023-03-15T05:50:48.201Z,3.40
2023-03-15T05:53:18.955Z,3.40
2023-03-15T05:55:49.824Z,3.40
2023-03-15T05:58:20.818Z,3.30
2023-03-15T06:00:51.814Z,3.40
2023-03-15T06:03:22.743Z,3.10
2023-03-15T06:05:53.745Z,3.10
2023-03-15T06:08:24.698Z,3.30
2023-03-15T06:10:55.732Z,3.50
2023-03-15T06:13:26.856Z,3.60
2023-03-15T06:15:57.804Z,3.50
2023-03-15T06:18:28.876Z,3.50
2023-03-15T06:20:59.729Z,3.50
2023-03-15T06:23:30.698Z,3.40
2023-03-15T06:26:01.864Z,3.40
2023-03-15T06:28:32.789Z,3.20
2023-03-15T06:31:09.951Z,3.40
2023-03-15T06:33:41.536Z,3.50
2023-03-15T06:36:14.500Z,3.60
2023-03-15T06:38:45.380Z,3.70
2023-03-15T06:41:17.294Z,3.90
2023-03-15T06:43:48.341Z,3.90
2023-03-15T06:46:19.080Z,3.70
2023-03-15T06:48:50.042Z,3.60
2023-03-15T06:51:21.199Z,3.50
2023-03-15T06:53:52.094Z,3.60
2023-03-15T06:56:23.065Z,3.70
2023-03-15T06:58:54.098Z,3.90
2023-03-15T07:01:25.170Z,4.10
2023-03-15T07:03:56.145Z,4.20
2023-03-15T07:06:28.428Z,4.20
2023-03-15T07:08:59.912Z,4.40
2023-03-15T07:11:30.851Z,4.60
2023-03-15T07:14:01.702Z,4.70
2023-03-15T07:16:32.703Z,4.90
2023-03-15T07:19:03.786Z,5.00
2023-03-15T07:21:35.063Z,5.10
2023-03-15T07:24:06.982Z,5.20
2023-03-15T07:26:37.886Z,5.30
2023-03-15T07:29:09.026Z,5.30
2023-03-15T07:31:39.898Z,5.50
2023-03-15T07:34:10.843Z,5.60
2023-03-15T07:36:41.766Z,5.70
2023-03-15T07:39:12.924Z,5.80
2023-03-15T07:41:44.064Z,5.80
2023-03-15T07:44:15.191Z,5.80
2023-03-15T07:46:47.248Z,5.90
2023-03-15T07:49:18.603Z,6.00
2023-03-15T07:51:49.597Z,6.10
2023-03-15T07:54:20.998Z,6.30
2023-03-15T07:56:52.234Z,6.40
2023-03-15T07:59:23.401Z,6.50
2023-03-15T08:01:54.221Z,6.60
2023-03-15T08:04:25.203Z,6.70
2023-03-15T08:06:56.001Z,6.90
2023-03-15T08:09:27.393Z,7.00
2023-03-15T08:11:58.418Z,6.70
2023-03-15T08:14:31.741Z,6.80
2023-03-15T08:17:02.717Z,7.00
2023-03-15T08:19:33.540Z,7.00
2023-03-15T08:22:05.822Z,6.90
2023-03-15T08:24:37.334Z,7.10
2023-03-15T08:27:09.497Z,7.10
2023-03-15T08:29:40.597Z,7.30
2023-03-15T08:32:12.602Z,7.40
2023-03-15T08:34:43.598Z,7.50
2023-03-15T08:37:14.833Z,7.90
2023-03-15T08:39:45.888Z,8.20
2023-03-15T08:42:16.837Z,8.10
2023-03-15T08:44:47.815Z,8.10
2023-03-15T08:47:18.764Z,8.30
2023-03-15T08:49:49.879Z,8.20
2023-03-15T08:52:21.463Z,8.20
2023-03-15T08:54:52.442Z,8.10
2023-03-15T08:57:25.992Z,8.00
2023-03-15T08:59:57.774Z,8.20
2023-03-15T09:02:28.746Z,8.00
2023-03-15T09:04:59.761Z,7.50
2023-03-15T09:07:32.443Z,7.20
2023-03-15T09:10:05.715Z,7.10
2023-03-15T09:12:36.886Z,7.20
2023-03-15T09:15:09.688Z,7.10
2023-03-15T09:17:40.826Z,7.20
2023-03-15T09:20:16.842Z,7.30
2023-03-15T09:22:52.704Z,7.40
2023-03-15T09:25:24.480Z,7.30
2023-03-15T09:27:56.169Z,7.60
2023-03-15T09:30:27.097Z,8.00
2023-03-15T09:32:58.155Z,8.30
2023-03-15T09:35:47.621Z,8.30
2023-03-15T09:38:18.745Z,8.10
2023-03-15T09:40:49.798Z,8.10
2023-03-15T09:43:35.283Z,8.50
2023-03-15T09:46:12.848Z,8.80
2023-03-15T09:48:47.462Z,8.70
2023-03-15T09:51:21.463Z,8.70
2023-03-15T09:56:33.917Z,9.20
2023-03-15T09:59:05.524Z,9.00
2023-03-15T10:01:38.741Z,9.00
2023-03-15T10:04:14.513Z,9.40
2023-03-15T10:06:48.784Z,9.20
2023-03-15T10:09:22.635Z,9.30
2023-03-15T10:12:00.135Z,9.30
2023-03-15T10:14:36.669Z,9.60
2023-03-15T10:17:11.155Z,9.60
2023-03-15T10:19:47.691Z,9.60
2023-03-15T10:22:24.610Z,9.90
2023-03-15T10:24:57.934Z,10.30
2023-03-15T10:27:32.050Z,10.00
2023-03-15T10:30:03.990Z,10.00
2023-03-15T10:32:38.432Z,9.80
2023-03-15T10:35:15.960Z,9.60
2023-03-15T10:37:47.648Z,10.00
2023-03-15T10:40:20.729Z,10.10
2023-03-15T10:42:51.744Z,9.90
2023-03-15T10:45:24.697Z,10.30
2023-03-15T10:48:00.680Z,10.10
2023-03-15T10:50:31.141Z,10.30
2023-03-15T10:53:04.766Z,10.40
2023-03-15T10:55:38.504Z,10.30
2023-03-15T11:01:08.194Z,10.40
2023-03-15T11:03:39.995Z,10.30
2023-03-15T11:06:23.769Z,10.90
2023-03-15T11:08:54.655Z,10.90
2023-03-15T11:11:25.644Z,10.90
2023-03-15T11:14:01.880Z,11.40
2023-03-15T11:16:36.631Z,11.40
2023-03-15T11:19:13.183Z,11.20
2023-03-15T11:21:46.438Z,11.40
2023-03-15T11:24:24.123Z,11.90
2023-03-15T11:26:56.337Z,11.70
2023-03-15T11:29:29.835Z,11.50
2023-03-15T11:32:02.451Z,11.40
2023-03-15T11:34:40.883Z,11.30
2023-03-15T11:37:18.485Z,11.00
2023-03-15T11:39:58.850Z,11.10
2023-03-15T11:42:29.102Z,11.00
2023-03-15T11:45:03.496Z,11.50
2023-03-15T11:47:42.912Z,12.20
2023-03-15T11:50:17.116Z,12.50
2023-03-15T11:52:51.561Z,11.90
2023-03-15T11:55:26.417Z,12.40
2023-03-15T11:57:58.952Z,12.20
2023-03-15T12:00:52.857Z,12.20
2023-03-15T12:03:34.550Z,12.20
2023-03-15T12:06:11.603Z,12.80
2023-03-15T12:08:50.680Z,12.40
2023-03-15T12:11:57.564Z,12.50
2023-03-15T12:14:34.906Z,12.30
2023-03-15T12:17:45.301Z,12.50
2023-03-15T12:23:22.431Z,12.80
2023-03-15T12:25:57.509Z,12.80
2023-03-15T12:28:32.531Z,13.30
2023-03-15T12:31:06.944Z,12.80
2023-03-15T12:33:47.033Z,12.90
2023-03-15T12:36:25.217Z,13.20
2023-03-15T12:39:05.148Z,13.70
2023-03-15T12:41:42.709Z,13.70
2023-03-15T12:44:40.475Z,13.40
2023-03-15T12:47:12.358Z,13.00
2023-03-15T12:49:45.436Z,13.60
2023-03-15T12:52:38.732Z,13.50
2023-03-15T12:55:15.740Z,13.70
2023-03-15T12:57:51.510Z,13.70
2023-03-15T13:00:25.553Z,13.80
2023-03-15T13:03:02.194Z,13.30
2023-03-15T13:05:37.710Z,13.60
2023-03-15T13:08:11.474Z,13.20
2023-03-15T13:13:38.834Z,13.00
2023-03-15T13:16:17.725Z,13.80
2023-03-15T13:18:54.684Z,14.20
2023-03-15T13:21:30.439Z,14.00
2023-03-15T13:24:02.566Z,14.30
2023-03-15T13:26:47.016Z,14.20
2023-03-15T13:29:20.251Z,13.90
2023-03-15T13:32:02.416Z,14.00
2023-03-15T13:34:35.042Z,13.80
2023-03-15T13:37:07.288Z,13.80
2023-03-15T13:39:38.441Z,14.20
2023-03-15T13:42:19.156Z,14.20
2023-03-15T13:44:51.804Z,14.20
2023-03-15T13:47:23.463Z,14.80
2023-03-15T13:49:57.715Z,15.10
2023-03-15T13:52:28.966Z,14.80
2023-03-15T13:55:01.872Z,15.30
2023-03-15T13:57:33.133Z,14.40
2023-03-15T14:02:51.736Z,14.40
2023-03-15T14:05:27.547Z,14.10
2023-03-15T14:08:04.462Z,14.70
2023-03-15T14:10:37.146Z,14.40
2023-03-15T14:13:25.126Z,14.70
2023-03-15T14:16:01.666Z,14.50
2023-03-15T14:18:37.881Z,14.90
2023-03-15T14:21:12.139Z,14.70
2023-03-15T14:23:45.446Z,14.20
2023-03-15T14:26:20.186Z,14.20
2023-03-15T14:28:54.367Z,14.70
2023-03-15T14:31:28.207Z,14.90
2023-03-15T14:34:01.934Z,15.00
2023-03-15T14:36:36.747Z,14.50
2023-03-15T14:39:09.118Z,14.50
2023-03-15T14:41:40.062Z,14.90
2023-03-15T14:44:11.111Z,15.00
2023-03-15T14:46:42.342Z,15.40
2023-03-15T14:49:16.863Z,14.60
2023-03-15T14:51:48.599Z,13.90
2023-03-15T14:54:20.229Z,13.80
2023-03-15T14:56:51.607Z,13.30
2023-03-15T14:59:23.487Z,12.60
2023-03-15T15:01:56.863Z,12.80
2023-03-15T15:04:30.526Z,12.90
2023-03-15T15:07:03.406Z,12.90
2023-03-15T15:09:36.591Z,12.40
2023-03-15T15:12:10.846Z,12.10
2023-03-15T15:14:42.950Z,12.00
2023-03-15T15:17:14.465Z,11.70
2023-03-15T15:22:23.812Z,11.40
2023-03-15T15:24:54.736Z,11.40
2023-03-15T15:27:26.151Z,11.20
2023-03-15T15:29:57.438Z,11.00
2023-03-15T15:32:28.389Z,11.00
2023-03-15T15:34:59.636Z,10.80
2023-03-15T15:37:30.955Z,10.70
2023-03-15T15:40:02.260Z,10.80
2023-03-15T15:42:33.545Z,10.90
2023-03-15T15:45:04.494Z,10.60
2023-03-15T15:47:35.450Z,10.50
2023-03-15T15:50:07.675Z,10.50
2023-03-15T15:52:40.793Z,10.40
2023-03-15T15:55:15.028Z,10.40
2023-03-15T15:57:49.798Z,10.50
2023-03-15T16:03:01.818Z,10.20
2023-03-15T16:05:33.868Z,10.30
2023-03-15T16:08:07.978Z,10.20
2023-03-15T16:10:39.128Z,10.10
2023-03-15T16:13:13.733Z,10.10
2023-03-15T16:15:44.818Z,10.20
2023-03-15T16:18:16.548Z,10.20
2023-03-15T16:20:47.604Z,10.00
2023-03-15T16:23:22.117Z,10.00
2023-03-15T16:25:55.550Z,10.20
2023-03-15T16:28:26.923Z,9.90
2023-03-15T16:30:58.094Z,9.90
2023-03-15T16:33:29.069Z,9.60
2023-03-15T16:36:00.155Z,9.90
2023-03-15T16:38:33.372Z,9.80
2023-03-15T16:41:04.442Z,9.70
2023-03-15T16:43:35.434Z,9.80
2023-03-15T16:46:14.624Z,9.70
2023-03-15T16:48:45.839Z,9.70
2023-03-15T16:51:18.197Z,9.70
2023-03-15T16:53:49.154Z,9.30
2023-03-15T16:56:20.185Z,9.40
2023-03-15T16:58:54.161Z,9.40
2023-03-15T17:01:26.014Z,9.30
2023-03-15T17:03:58.287Z,9.30
2023-03-15T17:06:29.384Z,9.20
2023-03-15T17:09:03.555Z,9.00
2023-03-15T17:11:36.229Z,9.00
2023-03-15T17:14:08.699Z,9.00
2023-03-15T17:16:39.719Z,8.80
2023-03-15T17:19:14.226Z,8.90
2023-03-15T17:21:45.931Z,8.80
2023-03-15T17:26:56.145Z,8.60
2023-03-15T17:29:27.223Z,8.60
2023-03-15T17:31:58.357Z,8.50
2023-03-15T17:34:29.345Z,8.40
2023-03-15T17:37:00.707Z,8.30
2023-03-15T17:39:31.714Z,8.40
2023-03-15T17:42:02.507Z,8.20
2023-03-15T17:44:33.475Z,8.30
2023-03-15T17:47:05.933Z,8.20
2023-03-15T17:49:37.008Z,8.10
2023-03-15T17:52:12.166Z,8.00
2023-03-15T17:54:43.221Z,7.80
2023-03-15T17:57:14.866Z,7.90
2023-03-15T17:59:45.822Z,8.10
2023-03-15T18:02:18.019Z,7.90
2023-03-15T18:04:49.384Z,7.80
2023-03-15T18:07:20.239Z,7.70
2023-03-15T18:09:51.438Z,7.90
2023-03-15T18:12:23.178Z,7.80
2023-03-15T18:14:54.300Z,7.60
2023-03-15T18:17:25.443Z,7.80
2023-03-15T18:20:15.745Z,7.70
2023-03-15T18:23:05.621Z,8.00
2023-03-15T18:25:37.458Z,7.90
2023-03-15T18:28:08.695Z,7.60
2023-03-15T18:30:40.059Z,7.40
2023-03-15T18:33:11.732Z,7.50
2023-03-15T18:35:42.862Z,7.60
2023-03-15T18:38:15.674Z,7.90
2023-03-15T18:40:47.839Z,8.00
2023-03-15T18:43:19.047Z,7.90
2023-03-15T18:45:50.253Z,7.90
2023-03-15T18:48:34.164Z,7.50
2023-03-15T18:50:54.931Z,7.30
2023-03-15T18:53:25.972Z,7.20
2023-03-15T18:55:57.020Z,7.20
2023-03-15T18:58:28.179Z,7.10
2023-03-15T19:00:59.802Z,7.10
2023-03-15T19:03:31.063Z,6.80
2023-03-15T19:06:07.856Z,6.90
2023-03-15T19:08:39.200Z,6.80
2023-03-15T19:11:11.903Z,7.10
2023-03-15T19:13:43.600Z,7.10
2023-03-15T19:16:14.345Z,7.10
2023-03-15T19:18:45.386Z,7.20
2023-03-15T19:21:16.579Z,7.00
2023-03-15T19:23:47.620Z,6.80
2023-03-15T19:26:18.464Z,6.60
2023-03-15T19:28:49.596Z,6.30
2023-03-15T19:33:59.423Z,6.40
2023-03-15T19:36:31.643Z,6.40
2023-03-15T19:39:03.858Z,6.20
2023-03-15T19:41:36.095Z,6.40
2023-03-15T19:44:07.549Z,6.40
2023-03-15T19:46:38.625Z,6.50
2023-03-15T19:49:09.558Z,6.50
2023-03-15T19:51:40.583Z,6.60
2023-03-15T19:54:11.476Z,6.30
2023-03-15T19:56:42.708Z,6.50
2023-03-15T19:59:13.872Z,5.90
2023-03-15T20:01:46.139Z,5.80
2023-03-15T20:04:17.174Z,5.60
2023-03-15T20:06:48.108Z,5.60
2023-03-15T20:09:19.039Z,5.50
2023-03-15T20:11:50.079Z,5.40
2023-03-15T20:14:20.996Z,5.20
2023-03-15T20:16:51.956Z,5.20
2023-03-15T20:19:23.680Z,5.20
2023-03-15T20:21:58.020Z,5.20
2023-03-15T20:24:29.234Z,5.10
2023-03-15T20:27:00.126Z,5.00
2023-03-15T20:29:32.504Z,4.90
2023-03-15T20:32:03.535Z,5.10
2023-03-15T20:34:34.679Z,5.00
2023-03-15T20:37:06.651Z,4.70
2023-03-15T20:39:38.945Z,4.70
2023-03-15T20:42:09.955Z,4.70
2023-03-15T20:44:42.391Z,4.50
2023-03-15T20:47:13.223Z,4.40
2023-03-15T20:49:44.177Z,4.60
2023-03-15T20:52:15.567Z,4.60
2023-03-15T20:54:46.795Z,4.50
2023-03-15T20:57:17.705Z,4.60
2023-03-15T20:59:49.703Z,4.60
2023-03-15T21:02:22.377Z,4.50
2023-03-15T21:04:53.473Z,4.60
2023-03-15T21:07:24.661Z,4.60
2023-03-15T21:09:55.663Z,4.50
2023-03-15T21:12:26.663Z,4.40
2023-03-15T21:14:57.616Z,4.40
2023-03-15T21:17:28.586Z,4.50
2023-03-15T21:19:59.578Z,4.50
2023-03-15T21:22:30.615Z,4.40
2023-03-15T21:25:02.194Z,4.50
2023-03-15T21:27:34.046Z,4.60
2023-03-15T21:30:06.751Z,4.50
2023-03-15T21:32:38.477Z,4.50
2023-03-15T21:35:10.976Z,4.40
2023-03-15T21:37:41.860Z,4.40
2023-03-15T21:40:15.860Z,4.50
2023-03-15T21:42:47.977Z,4.30
2023-03-15T21:45:19.635Z,4.20
2023-03-15T21:47:52.181Z,3.90
2023-03-15T21:50:23.461Z,3.80
2023-03-15T21:52:54.850Z,3.80
2023-03-15T21:55:25.615Z,3.80
2023-03-15T21:57:56.653Z,4.00
2023-03-15T22:00:28.958Z,4.00
2023-03-15T22:02:59.971Z,4.00
2023-03-15T22:05:30.882Z,4.00
2023-03-15T22:08:01.869Z,4.00
2023-03-15T22:10:32.932Z,4.00
2023-03-15T22:13:04.068Z,4.10
2023-03-15T22:15:35.060Z,4.20
2023-03-15T22:18:06.123Z,4.30
2023-03-15T22:20:37.407Z,4.30
2023-03-15T22:23:08.478Z,4.60
2023-03-15T22:25:40.758Z,4.30
2023-03-15T22:28:11.839Z,4.20
2023-03-15T22:30:43.511Z,4.40
2023-03-15T22:33:14.835Z,4.10
2023-03-15T22:35:46.028Z,3.90
2023-03-15T22:38:17.017Z,3.70
2023-03-15T22:40:47.814Z,3.60
2023-03-15T22:43:19.265Z,3.50
2023-03-15T22:45:50.237Z,3.40
2023-03-15T22:48:21.104Z,3.60
2023-03-15T22:50:58.161Z,3.70
2023-03-15T22:53:29.582Z,3.80
2023-03-15T22:56:01.330Z,3.80
2023-03-15T22:58:32.419Z,4.00
2023-03-15T23:01:03.337Z,3.70
2023-03-15T23:03:34.425Z,3.60
2023-03-15T23:06:05.477Z,3.70
2023-03-15T23:08:36.624Z,3.60
2023-03-15T23:11:07.895Z,3.60
2023-03-15T23:13:38.883Z,3.60
2023-03-15T23:16:10.495Z,3.50
2023-03-15T23:18:41.983Z,3.40
2023-03-15T23:21:15.101Z,3.20
2023-03-15T23:23:45.865Z,3.00
2023-03-15T23:26:18.878Z,2.80
2023-03-15T23:28:49.758Z,2.70
2023-03-15T23:31:21.042Z,2.90
2023-03-15T23:34:10.611Z,2.90
2023-03-15T23:36:43.488Z,2.80
2023-03-15T23:39:14.490Z,2.80
2023-03-15T23:41:46.252Z,2.80
2023-03-15T23:44:17.451Z,2.90
2023-03-15T23:46:49.267Z,2.90
2023-03-15T23:49:20.999Z,3.10
2023-03-15T23:51:53.842Z,3.40
2023-03-15T23:54:25.089Z,3.80
2023-03-15T23:56:56.230Z,3.70
2023-03-15T23:59:28.456Z,3.40
